Terminal Aerodrome Forecast
Issued by NWS Wilmington, OH

Current Version | Previous Version | Graphics & Text | Print | Product List | Glossary On
Versions: 1 2 3 4 5 6 7 8 9 10 11 12 13 14 15 16 17 18 19 20 21 22 23 24 25 26 27 28 29
000
FTUS41 KILN 220914 AAB
TAFILN
TAF AMD
KILN 220914Z 2209/2306 04014G22KT 4SM RA BR SCT007 OVC040
     FM221100 04012KT 5SM -RA BR BKN007 OVC035
     FM221400 05010KT P6SM BKN007 OVC025
     FM230300 08007KT 5SM BR OVC007=

USA.gov is the U.S. government's official web portal to all federal, state and local government web resources and services.